Prices Fork, Virginia
Current Conditions -  °F | °C
As of 3:15 PM on Friday 31 Oct 2014 (Local Time) from KBCB Reporting Station
Overcast Overcast  
Wind Chill: 52°   Ceiling: 4100
Heat Index: 52°   Visibility: 10mi
Dew Point: 39°   Wind: 0mph
Humidity: 62%   Direction: NA
Pressure: 29.83"   Gusts: NA
Location:  37.1278°N, 80.4251°W
Report Text: KBCB 311915Z AUTO 00000KT 10SM SCT035 OVC041 11/04 A2983 RMK AO2
Loading
Personal Weather Stations






























Interactive Weather Map
Tropical Storm Tracking
New forecast layout! Learn more

10-Day Weather Forecast

Advertisements
Track Severe Weather on mobile